sensor_id;sensor_type;location;lat;lon;timestamp;temperature;humidity
80212;DHT22;70434;37.956;23.722;2023-09-19T00:01:47;25.40;40.90
80212;DHT22;70434;37.956;23.722;2023-09-19T00:04:13;25.40;40.90
80212;DHT22;70434;37.956;23.722;2023-09-19T00:06:41;25.50;40.80
80212;DHT22;70434;37.956;23.722;2023-09-19T00:09:08;25.50;40.80
80212;DHT22;70434;37.956;23.722;2023-09-19T00:11:37;25.50;40.90
80212;DHT22;70434;37.956;23.722;2023-09-19T00:14:04;25.50;40.70
80212;DHT22;70434;37.956;23.722;2023-09-19T00:16:34;25.50;41.00
80212;DHT22;70434;37.956;23.722;2023-09-19T00:18:59;25.40;41.30
80212;DHT22;70434;37.956;23.722;2023-09-19T00:21:31;25.40;41.30
80212;DHT22;70434;37.956;23.722;2023-09-19T00:23:57;25.40;41.40
80212;DHT22;70434;37.956;23.722;2023-09-19T00:26:23;25.40;41.60
80212;DHT22;70434;37.956;23.722;2023-09-19T00:28:52;25.50;41.50
80212;DHT22;70434;37.956;23.722;2023-09-19T00:31:18;25.40;41.50
80212;DHT22;70434;37.956;23.722;2023-09-19T00:33:44;25.40;41.50
80212;DHT22;70434;37.956;23.722;2023-09-19T00:36:09;25.40;41.60
80212;DHT22;70434;37.956;23.722;2023-09-19T00:38:35;25.50;41.60
80212;DHT22;70434;37.956;23.722;2023-09-19T00:41:01;25.50;41.80
80212;DHT22;70434;37.956;23.722;2023-09-19T00:43:27;25.50;41.80
80212;DHT22;70434;37.956;23.722;2023-09-19T00:45:54;25.50;41.80
80212;DHT22;70434;37.956;23.722;2023-09-19T00:48:22;25.50;41.70
80212;DHT22;70434;37.956;23.722;2023-09-19T00:50:48;25.60;42.00
80212;DHT22;70434;37.956;23.722;2023-09-19T00:53:19;25.40;42.20
80212;DHT22;70434;37.956;23.722;2023-09-19T00:55:47;25.40;41.90
80212;DHT22;70434;37.956;23.722;2023-09-19T00:58:19;25.40;42.00
80212;DHT22;70434;37.956;23.722;2023-09-19T01:00:49;25.40;42.30
80212;DHT22;70434;37.956;23.722;2023-09-19T01:03:17;25.50;42.30
80212;DHT22;70434;37.956;23.722;2023-09-19T01:05:43;25.40;42.20
80212;DHT22;70434;37.956;23.722;2023-09-19T01:08:10;25.50;42.30
80212;DHT22;70434;37.956;23.722;2023-09-19T01:10:46;25.40;42.30
80212;DHT22;70434;37.956;23.722;2023-09-19T01:13:29;25.40;42.00
80212;DHT22;70434;37.956;23.722;2023-09-19T01:27:05;25.20;40.40
80212;DHT22;70434;37.956;23.722;2023-09-19T01:29:39;25.00;40.70
80212;DHT22;70434;37.956;23.722;2023-09-19T01:32:11;25.00;40.30
80212;DHT22;70434;37.956;23.722;2023-09-19T01:34:49;25.00;40.20
80212;DHT22;70434;37.956;23.722;2023-09-19T01:37:20;25.10;40.20
80212;DHT22;70434;37.956;23.722;2023-09-19T01:39:50;25.20;40.40
80212;DHT22;70434;37.956;23.722;2023-09-19T01:42:38;25.10;40.50
80212;DHT22;70434;37.956;23.722;2023-09-19T01:45:44;25.10;40.30
80212;DHT22;70434;37.956;23.722;2023-09-19T01:48:38;25.10;39.90
80212;DHT22;70434;37.956;23.722;2023-09-19T01:51:07;25.10;40.00
80212;DHT22;70434;37.956;23.722;2023-09-19T01:56:02;25.00;40.80
80212;DHT22;70434;37.956;23.722;2023-09-19T01:58:48;25.00;41.20
80212;DHT22;70434;37.956;23.722;2023-09-19T02:01:20;25.10;41.30
80212;DHT22;70434;37.956;23.722;2023-09-19T02:03:51;25.10;41.40
80212;DHT22;70434;37.956;23.722;2023-09-19T02:06:18;25.00;41.10
80212;DHT22;70434;37.956;23.722;2023-09-19T02:08:45;25.00;40.70
80212;DHT22;70434;37.956;23.722;2023-09-19T02:11:14;24.90;40.70
80212;DHT22;70434;37.956;23.722;2023-09-19T02:13:40;25.00;40.70
80212;DHT22;70434;37.956;23.722;2023-09-19T02:16:06;24.90;41.00
80212;DHT22;70434;37.956;23.722;2023-09-19T02:18:33;24.80;41.20
80212;DHT22;70434;37.956;23.722;2023-09-19T02:21:02;24.80;41.40
80212;DHT22;70434;37.956;23.722;2023-09-19T02:23:29;24.90;41.30
80212;DHT22;70434;37.956;23.722;2023-09-19T02:25:56;24.80;41.50
80212;DHT22;70434;37.956;23.722;2023-09-19T02:28:29;24.70;41.70
80212;DHT22;70434;37.956;23.722;2023-09-19T02:31:01;24.80;41.60
80212;DHT22;70434;37.956;23.722;2023-09-19T02:33:28;24.80;41.70
80212;DHT22;70434;37.956;23.722;2023-09-19T02:35:58;24.80;41.80
80212;DHT22;70434;37.956;23.722;2023-09-19T02:38:25;24.80;41.90
80212;DHT22;70434;37.956;23.722;2023-09-19T02:40:52;24.80;41.80
80212;DHT22;70434;37.956;23.722;2023-09-19T02:43:18;24.80;41.90
80212;DHT22;70434;37.956;23.722;2023-09-19T02:45:45;24.70;42.20
80212;DHT22;70434;37.956;23.722;2023-09-19T02:48:12;24.60;42.50
80212;DHT22;70434;37.956;23.722;2023-09-19T02:50:38;24.50;42.90
80212;DHT22;70434;37.956;23.722;2023-09-19T02:53:05;24.50;43.10
80212;DHT22;70434;37.956;23.722;2023-09-19T02:55:32;24.50;43.00
80212;DHT22;70434;37.956;23.722;2023-09-19T02:57:58;24.50;43.00
80212;DHT22;70434;37.956;23.722;2023-09-19T03:00:24;24.50;43.00
80212;DHT22;70434;37.956;23.722;2023-09-19T03:02:54;24.50;43.00
80212;DHT22;70434;37.956;23.722;2023-09-19T03:05:21;24.50;43.10
80212;DHT22;70434;37.956;23.722;2023-09-19T03:07:47;24.50;43.40
80212;DHT22;70434;37.956;23.722;2023-09-19T03:10:20;24.50;43.40
80212;DHT22;70434;37.956;23.722;2023-09-19T03:12:49;24.50;43.60
80212;DHT22;70434;37.956;23.722;2023-09-19T03:15:15;24.50;43.60
80212;DHT22;70434;37.956;23.722;2023-09-19T03:17:47;24.50;43.60
80212;DHT22;70434;37.956;23.722;2023-09-19T03:20:17;24.40;43.80
80212;DHT22;70434;37.956;23.722;2023-09-19T03:22:44;24.50;43.70
80212;DHT22;70434;37.956;23.722;2023-09-19T03:25:10;24.30;43.90
80212;DHT22;70434;37.956;23.722;2023-09-19T03:27:40;24.30;44.10
80212;DHT22;70434;37.956;23.722;2023-09-19T03:30:07;24.30;44.10
80212;DHT22;70434;37.956;23.722;2023-09-19T03:32:35;24.40;44.10
80212;DHT22;70434;37.956;23.722;2023-09-19T03:35:02;24.30;44.50
80212;DHT22;70434;37.956;23.722;2023-09-19T03:37:31;24.20;44.70
80212;DHT22;70434;37.956;23.722;2023-09-19T03:39:57;24.20;45.00
80212;DHT22;70434;37.956;23.722;2023-09-19T03:42:23;24.10;44.80
80212;DHT22;70434;37.956;23.722;2023-09-19T03:44:51;24.30;44.80
80212;DHT22;70434;37.956;23.722;2023-09-19T03:47:18;24.30;44.70
80212;DHT22;70434;37.956;23.722;2023-09-19T03:49:44;24.20;45.00
80212;DHT22;70434;37.956;23.722;2023-09-19T03:52:10;24.30;45.10
80212;DHT22;70434;37.956;23.722;2023-09-19T03:54:37;24.10;45.30
80212;DHT22;70434;37.956;23.722;2023-09-19T03:57:03;24.10;45.40
80212;DHT22;70434;37.956;23.722;2023-09-19T03:59:30;24.10;45.40
80212;DHT22;70434;37.956;23.722;2023-09-19T04:01:56;24.10;45.60
80212;DHT22;70434;37.956;23.722;2023-09-19T04:04:22;24.10;45.70
80212;DHT22;70434;37.956;23.722;2023-09-19T04:06:51;24.00;45.80
80212;DHT22;70434;37.956;23.722;2023-09-19T04:09:16;24.10;45.70
80212;DHT22;70434;37.956;23.722;2023-09-19T04:11:42;23.90;46.10
80212;DHT22;70434;37.956;23.722;2023-09-19T04:14:08;23.80;46.20
80212;DHT22;70434;37.956;23.722;2023-09-19T04:16:34;23.80;46.50
80212;DHT22;70434;37.956;23.722;2023-09-19T04:18:59;23.60;46.90
80212;DHT22;70434;37.956;23.722;2023-09-19T04:21:27;23.40;47.30
80212;DHT22;70434;37.956;23.722;2023-09-19T04:23:54;23.30;47.50
80212;DHT22;70434;37.956;23.722;2023-09-19T04:26:20;23.30;47.70
80212;DHT22;70434;37.956;23.722;2023-09-19T04:28:47;23.30;47.50
80212;DHT22;70434;37.956;23.722;2023-09-19T04:31:13;23.30;47.60
80212;DHT22;70434;37.956;23.722;2023-09-19T04:33:39;23.40;47.30
80212;DHT22;70434;37.956;23.722;2023-09-19T04:36:05;23.50;46.80
80212;DHT22;70434;37.956;23.722;2023-09-19T04:38:33;23.50;46.70
80212;DHT22;70434;37.956;23.722;2023-09-19T04:40:59;23.50;46.80
80212;DHT22;70434;37.956;23.722;2023-09-19T04:43:26;23.60;46.80
80212;DHT22;70434;37.956;23.722;2023-09-19T04:45:52;23.60;46.40
80212;DHT22;70434;37.956;23.722;2023-09-19T04:48:22;23.70;46.10
80212;DHT22;70434;37.956;23.722;2023-09-19T04:50:50;23.70;46.00
80212;DHT22;70434;37.956;23.722;2023-09-19T04:53:17;23.80;46.80
80212;DHT22;70434;37.956;23.722;2023-09-19T04:55:43;23.80;45.90
80212;DHT22;70434;37.956;23.722;2023-09-19T04:58:11;23.80;46.10
80212;DHT22;70434;37.956;23.722;2023-09-19T05:00:37;23.90;45.90
80212;DHT22;70434;37.956;23.722;2023-09-19T05:03:02;23.90;45.90
80212;DHT22;70434;37.956;23.722;2023-09-19T05:05:29;23.90;45.60
80212;DHT22;70434;37.956;23.722;2023-09-19T05:07:55;23.90;45.80
80212;DHT22;70434;37.956;23.722;2023-09-19T05:10:21;24.00;43.50
80212;DHT22;70434;37.956;23.722;2023-09-19T05:12:47;24.10;43.30
80212;DHT22;70434;37.956;23.722;2023-09-19T05:15:14;24.20;43.90
80212;DHT22;70434;37.956;23.722;2023-09-19T05:17:51;24.30;44.00
80212;DHT22;70434;37.956;23.722;2023-09-19T05:20:17;24.40;44.20
80212;DHT22;70434;37.956;23.722;2023-09-19T05:23:02;24.30;43.90
80212;DHT22;70434;37.956;23.722;2023-09-19T05:25:32;24.30;43.90
80212;DHT22;70434;37.956;23.722;2023-09-19T05:27:58;24.30;44.20
80212;DHT22;70434;37.956;23.722;2023-09-19T05:30:27;24.40;43.60
80212;DHT22;70434;37.956;23.722;2023-09-19T05:32:53;24.50;43.20
80212;DHT22;70434;37.956;23.722;2023-09-19T05:35:20;24.70;43.10
80212;DHT22;70434;37.956;23.722;2023-09-19T05:37:47;24.70;42.50
80212;DHT22;70434;37.956;23.722;2023-09-19T05:40:17;24.70;42.70
80212;DHT22;70434;37.956;23.722;2023-09-19T05:42:43;24.80;42.00
80212;DHT22;70434;37.956;23.722;2023-09-19T05:45:10;24.80;41.90
80212;DHT22;70434;37.956;23.722;2023-09-19T05:47:39;24.90;42.10
80212;DHT22;70434;37.956;23.722;2023-09-19T05:50:10;24.90;41.90
80212;DHT22;70434;37.956;23.722;2023-09-19T05:52:36;25.00;41.40
80212;DHT22;70434;37.956;23.722;2023-09-19T05:55:07;25.10;41.00
80212;DHT22;70434;37.956;23.722;2023-09-19T05:57:36;25.00;40.50
80212;DHT22;70434;37.956;23.722;2023-09-19T06:00:06;24.90;40.90
80212;DHT22;70434;37.956;23.722;2023-09-19T06:02:36;25.00;41.00
80212;DHT22;70434;37.956;23.722;2023-09-19T06:05:05;25.00;40.60
80212;DHT22;70434;37.956;23.722;2023-09-19T06:07:35;25.10;40.30
80212;DHT22;70434;37.956;23.722;2023-09-19T06:10:05;25.10;40.70
80212;DHT22;70434;37.956;23.722;2023-09-19T06:12:32;25.10;40.70
80212;DHT22;70434;37.956;23.722;2023-09-19T06:15:04;25.20;40.40
80212;DHT22;70434;37.956;23.722;2023-09-19T06:17:31;25.30;39.60
80212;DHT22;70434;37.956;23.722;2023-09-19T06:19:57;25.50;39.10
80212;DHT22;70434;37.956;23.722;2023-09-19T06:22:22;25.40;38.80
80212;DHT22;70434;37.956;23.722;2023-09-19T06:24:50;25.50;38.90
80212;DHT22;70434;37.956;23.722;2023-09-19T06:27:15;25.50;39.20
80212;DHT22;70434;37.956;23.722;2023-09-19T06:29:41;25.50;38.90
80212;DHT22;70434;37.956;23.722;2023-09-19T06:32:10;25.60;39.00
80212;DHT22;70434;37.956;23.722;2023-09-19T06:34:36;25.70;38.80
80212;DHT22;70434;37.956;23.722;2023-09-19T06:37:04;25.80;38.90
80212;DHT22;70434;37.956;23.722;2023-09-19T06:39:33;25.90;38.50
80212;DHT22;70434;37.956;23.722;2023-09-19T06:41:59;25.80;37.90
80212;DHT22;70434;37.956;23.722;2023-09-19T06:44:27;25.70;38.40
80212;DHT22;70434;37.956;23.722;2023-09-19T06:46:55;25.60;38.10
80212;DHT22;70434;37.956;23.722;2023-09-19T06:49:20;25.60;38.20
80212;DHT22;70434;37.956;23.722;2023-09-19T06:51:46;25.70;38.40
80212;DHT22;70434;37.956;23.722;2023-09-19T06:54:12;25.80;38.80
80212;DHT22;70434;37.956;23.722;2023-09-19T06:56:38;25.80;38.60
80212;DHT22;70434;37.956;23.722;2023-09-19T06:59:04;25.90;38.50
80212;DHT22;70434;37.956;23.722;2023-09-19T07:01:32;26.00;38.60
80212;DHT22;70434;37.956;23.722;2023-09-19T07:03:59;25.90;37.90
80212;DHT22;70434;37.956;23.722;2023-09-19T07:06:25;26.00;37.70
80212;DHT22;70434;37.956;23.722;2023-09-19T07:08:50;26.00;37.90
80212;DHT22;70434;37.956;23.722;2023-09-19T07:11:16;26.10;37.90
80212;DHT22;70434;37.956;23.722;2023-09-19T07:13:42;26.10;37.50
80212;DHT22;70434;37.956;23.722;2023-09-19T07:16:08;26.10;37.20
80212;DHT22;70434;37.956;23.722;2023-09-19T07:18:36;26.20;37.20
80212;DHT22;70434;37.956;23.722;2023-09-19T07:21:02;26.20;36.70
80212;DHT22;70434;37.956;23.722;2023-09-19T07:23:30;26.20;36.70
80212;DHT22;70434;37.956;23.722;2023-09-19T07:26:01;26.30;37.00
80212;DHT22;70434;37.956;23.722;2023-09-19T07:28:27;26.20;37.00
80212;DHT22;70434;37.956;23.722;2023-09-19T07:30:53;26.10;37.20
80212;DHT22;70434;37.956;23.722;2023-09-19T07:33:19;26.30;37.40
80212;DHT22;70434;37.956;23.722;2023-09-19T07:35:46;26.60;36.50
80212;DHT22;70434;37.956;23.722;2023-09-19T07:38:13;26.70;36.00
80212;DHT22;70434;37.956;23.722;2023-09-19T07:40:39;26.90;36.30
80212;DHT22;70434;37.956;23.722;2023-09-19T07:43:05;27.10;36.10
80212;DHT22;70434;37.956;23.722;2023-09-19T07:45:32;27.10;35.90
80212;DHT22;70434;37.956;23.722;2023-09-19T07:47:58;27.20;36.20
80212;DHT22;70434;37.956;23.722;2023-09-19T07:50:27;27.10;36.70
80212;DHT22;70434;37.956;23.722;2023-09-19T07:52:52;26.90;36.90
80212;DHT22;70434;37.956;23.722;2023-09-19T07:55:21;26.90;37.10
80212;DHT22;70434;37.956;23.722;2023-09-19T07:57:52;26.80;37.20
80212;DHT22;70434;37.956;23.722;2023-09-19T08:00:18;26.90;36.60
80212;DHT22;70434;37.956;23.722;2023-09-19T08:02:45;27.00;36.70
80212;DHT22;70434;37.956;23.722;2023-09-19T08:05:12;27.00;37.10
80212;DHT22;70434;37.956;23.722;2023-09-19T08:07:42;27.10;37.00
80212;DHT22;70434;37.956;23.722;2023-09-19T08:10:10;27.20;37.00
80212;DHT22;70434;37.956;23.722;2023-09-19T08:12:43;27.30;36.50
80212;DHT22;70434;37.956;23.722;2023-09-19T08:15:19;27.40;35.70
80212;DHT22;70434;37.956;23.722;2023-09-19T08:17:46;27.50;35.00
80212;DHT22;70434;37.956;23.722;2023-09-19T08:20:12;27.60;34.80
80212;DHT22;70434;37.956;23.722;2023-09-19T08:22:53;27.70;35.10
80212;DHT22;70434;37.956;23.722;2023-09-19T08:25:22;27.70;35.10
80212;DHT22;70434;37.956;23.722;2023-09-19T08:27:49;27.70;35.60
80212;DHT22;70434;37.956;23.722;2023-09-19T08:30:16;27.80;35.30
80212;DHT22;70434;37.956;23.722;2023-09-19T08:32:42;27.90;35.20
80212;DHT22;70434;37.956;23.722;2023-09-19T08:35:09;28.00;34.70
80212;DHT22;70434;37.956;23.722;2023-09-19T08:37:35;28.00;34.90
80212;DHT22;70434;37.956;23.722;2023-09-19T08:40:01;28.00;35.20
80212;DHT22;70434;37.956;23.722;2023-09-19T08:42:28;28.00;35.10
80212;DHT22;70434;37.956;23.722;2023-09-19T08:44:55;28.00;35.30
80212;DHT22;70434;37.956;23.722;2023-09-19T08:47:34;28.00;35.50
80212;DHT22;70434;37.956;23.722;2023-09-19T08:50:36;28.10;35.40
80212;DHT22;70434;37.956;23.722;2023-09-19T08:53:01;28.20;35.10
80212;DHT22;70434;37.956;23.722;2023-09-19T08:55:32;28.20;35.10
80212;DHT22;70434;37.956;23.722;2023-09-19T08:58:02;28.20;35.10
80212;DHT22;70434;37.956;23.722;2023-09-19T09:00:29;28.30;34.70
80212;DHT22;70434;37.956;23.722;2023-09-19T09:02:56;28.40;34.30
80212;DHT22;70434;37.956;23.722;2023-09-19T09:05:24;28.30;34.10
80212;DHT22;70434;37.956;23.722;2023-09-19T09:07:50;28.40;33.80
80212;DHT22;70434;37.956;23.722;2023-09-19T09:10:26;28.30;33.90
80212;DHT22;70434;37.956;23.722;2023-09-19T09:12:53;28.50;33.60
80212;DHT22;70434;37.956;23.722;2023-09-19T09:15:22;28.50;33.20
80212;DHT22;70434;37.956;23.722;2023-09-19T09:17:52;28.50;33.20
80212;DHT22;70434;37.956;23.722;2023-09-19T09:20:19;28.50;33.70
80212;DHT22;70434;37.956;23.722;2023-09-19T09:22:52;28.50;33.60
80212;DHT22;70434;37.956;23.722;2023-09-19T09:25:19;28.60;33.70
80212;DHT22;70434;37.956;23.722;2023-09-19T09:28:07;28.80;33.00
80212;DHT22;70434;37.956;23.722;2023-09-19T09:30:35;28.80;33.10
80212;DHT22;70434;37.956;23.722;2023-09-19T09:33:11;28.90;32.70
80212;DHT22;70434;37.956;23.722;2023-09-19T09:35:46;29.00;32.60
80212;DHT22;70434;37.956;23.722;2023-09-19T09:38:12;29.00;33.20
80212;DHT22;70434;37.956;23.722;2023-09-19T09:40:50;28.90;32.70
80212;DHT22;70434;37.956;23.722;2023-09-19T09:43:32;28.90;32.20
80212;DHT22;70434;37.956;23.722;2023-09-19T09:46:18;28.90;32.70
80212;DHT22;70434;37.956;23.722;2023-09-19T09:49:07;28.90;33.10
80212;DHT22;70434;37.956;23.722;2023-09-19T09:51:48;29.10;32.30
80212;DHT22;70434;37.956;23.722;2023-09-19T09:54:24;29.10;32.30
80212;DHT22;70434;37.956;23.722;2023-09-19T09:59:47;29.20;31.70
80212;DHT22;70434;37.956;23.722;2023-09-19T10:02:20;29.30;32.00
80212;DHT22;70434;37.956;23.722;2023-09-19T10:04:57;29.20;32.30
80212;DHT22;70434;37.956;23.722;2023-09-19T10:07:39;29.20;31.70
80212;DHT22;70434;37.956;23.722;2023-09-19T10:10:08;29.30;31.80
80212;DHT22;70434;37.956;23.722;2023-09-19T10:12:48;29.30;31.60
80212;DHT22;70434;37.956;23.722;2023-09-19T10:15:18;29.30;32.00
80212;DHT22;70434;37.956;23.722;2023-09-19T10:17:47;29.30;31.70
80212;DHT22;70434;37.956;23.722;2023-09-19T10:20:15;29.30;31.60
80212;DHT22;70434;37.956;23.722;2023-09-19T10:23:09;29.40;31.80
80212;DHT22;70434;37.956;23.722;2023-09-19T10:25:41;29.60;30.80
80212;DHT22;70434;37.956;23.722;2023-09-19T10:28:09;29.60;31.30
80212;DHT22;70434;37.956;23.722;2023-09-19T10:33:14;29.80;30.80
80212;DHT22;70434;37.956;23.722;2023-09-19T10:35:43;29.70;31.20
80212;DHT22;70434;37.956;23.722;2023-09-19T10:38:13;29.90;30.10
80212;DHT22;70434;37.956;23.722;2023-09-19T10:40:40;29.80;30.20
80212;DHT22;70434;37.956;23.722;2023-09-19T10:43:12;29.60;30.50
80212;DHT22;70434;37.956;23.722;2023-09-19T10:45:39;29.50;31.30
80212;DHT22;70434;37.956;23.722;2023-09-19T10:48:06;29.40;31.40
80212;DHT22;70434;37.956;23.722;2023-09-19T10:50:51;29.40;31.60
80212;DHT22;70434;37.956;23.722;2023-09-19T10:53:18;29.60;31.30
80212;DHT22;70434;37.956;23.722;2023-09-19T10:56:05;29.70;30.80
80212;DHT22;70434;37.956;23.722;2023-09-19T10:58:40;29.90;30.70
80212;DHT22;70434;37.956;23.722;2023-09-19T11:01:11;30.00;30.00
80212;DHT22;70434;37.956;23.722;2023-09-19T11:03:44;30.10;29.80
80212;DHT22;70434;37.956;23.722;2023-09-19T11:06:16;30.00;29.90
80212;DHT22;70434;37.956;23.722;2023-09-19T11:08:56;30.00;29.80
80212;DHT22;70434;37.956;23.722;2023-09-19T11:11:44;30.00;30.30
80212;DHT22;70434;37.956;23.722;2023-09-19T11:30:48;30.20;30.10
80212;DHT22;70434;37.956;23.722;2023-09-19T11:33:25;30.40;29.60
80212;DHT22;70434;37.956;23.722;2023-09-19T11:36:04;30.40;29.80
80212;DHT22;70434;37.956;23.722;2023-09-19T11:43:47;30.50;30.20
80212;DHT22;70434;37.956;23.722;2023-09-19T11:46:13;30.50;29.80
80212;DHT22;70434;37.956;23.722;2023-09-19T11:48:43;30.50;29.90
80212;DHT22;70434;37.956;23.722;2023-09-19T11:51:14;30.60;30.00
80212;DHT22;70434;37.956;23.722;2023-09-19T11:53:56;30.50;30.10
80212;DHT22;70434;37.956;23.722;2023-09-19T11:56:27;30.50;30.10
80212;DHT22;70434;37.956;23.722;2023-09-19T11:58:55;30.50;29.30
80212;DHT22;70434;37.956;23.722;2023-09-19T12:01:23;30.60;29.70
80212;DHT22;70434;37.956;23.722;2023-09-19T12:03:55;30.60;29.50
80212;DHT22;70434;37.956;23.722;2023-09-19T12:06:23;30.70;29.50
80212;DHT22;70434;37.956;23.722;2023-09-19T12:08:49;30.80;29.40
80212;DHT22;70434;37.956;23.722;2023-09-19T12:11:17;30.90;29.60
80212;DHT22;70434;37.956;23.722;2023-09-19T12:13:47;31.10;29.30
80212;DHT22;70434;37.956;23.722;2023-09-19T12:16:15;31.10;29.70
80212;DHT22;70434;37.956;23.722;2023-09-19T12:18:45;31.10;29.80
80212;DHT22;70434;37.956;23.722;2023-09-19T12:21:31;31.30;29.40
80212;DHT22;70434;37.956;23.722;2023-09-19T12:24:17;31.50;28.20
80212;DHT22;70434;37.956;23.722;2023-09-19T12:26:45;31.40;28.50
80212;DHT22;70434;37.956;23.722;2023-09-19T12:29:21;31.20;28.20
80212;DHT22;70434;37.956;23.722;2023-09-19T12:31:54;31.20;28.20
80212;DHT22;70434;37.956;23.722;2023-09-19T12:34:27;31.10;28.60
80212;DHT22;70434;37.956;23.722;2023-09-19T12:37:10;31.10;28.80
80212;DHT22;70434;37.956;23.722;2023-09-19T12:39:50;31.20;29.10
80212;DHT22;70434;37.956;23.722;2023-09-19T12:42:21;31.30;28.20
80212;DHT22;70434;37.956;23.722;2023-09-19T12:44:51;31.40;27.70
80212;DHT22;70434;37.956;23.722;2023-09-19T12:47:23;31.50;27.50
80212;DHT22;70434;37.956;23.722;2023-09-19T12:52:43;31.70;27.40
80212;DHT22;70434;37.956;23.722;2023-09-19T12:55:21;31.70;27.40
80212;DHT22;70434;37.956;23.722;2023-09-19T13:00:34;31.70;27.90
80212;DHT22;70434;37.956;23.722;2023-09-19T13:05:57;31.80;27.90
80212;DHT22;70434;37.956;23.722;2023-09-19T13:11:11;31.90;28.00
80212;DHT22;70434;37.956;23.722;2023-09-19T13:13:51;31.90;28.20
80212;DHT22;70434;37.956;23.722;2023-09-19T13:16:33;31.90;27.90
80212;DHT22;70434;37.956;23.722;2023-09-19T13:18:59;32.00;28.00
80212;DHT22;70434;37.956;23.722;2023-09-19T13:21:30;32.00;27.80
80212;DHT22;70434;37.956;23.722;2023-09-19T13:24:20;32.10;27.80
80212;DHT22;70434;37.956;23.722;2023-09-19T13:26:46;32.10;28.00
80212;DHT22;70434;37.956;23.722;2023-09-19T13:29:12;32.30;27.80
80212;DHT22;70434;37.956;23.722;2023-09-19T13:31:39;32.30;27.40
80212;DHT22;70434;37.956;23.722;2023-09-19T13:34:07;32.30;27.00
80212;DHT22;70434;37.956;23.722;2023-09-19T13:36:33;32.30;27.00
80212;DHT22;70434;37.956;23.722;2023-09-19T13:38:59;32.30;27.00
80212;DHT22;70434;37.956;23.722;2023-09-19T13:41:25;32.40;27.30
80212;DHT22;70434;37.956;23.722;2023-09-19T13:43:52;32.50;27.20
80212;DHT22;70434;37.956;23.722;2023-09-19T13:46:18;32.60;27.30
80212;DHT22;70434;37.956;23.722;2023-09-19T13:48:51;32.70;27.10
80212;DHT22;70434;37.956;23.722;2023-09-19T13:51:20;32.80;26.80
80212;DHT22;70434;37.956;23.722;2023-09-19T13:53:48;32.70;26.60
80212;DHT22;70434;37.956;23.722;2023-09-19T13:56:16;32.60;26.70
80212;DHT22;70434;37.956;23.722;2023-09-19T13:58:42;32.70;26.80
80212;DHT22;70434;37.956;23.722;2023-09-19T14:01:08;32.70;26.60
80212;DHT22;70434;37.956;23.722;2023-09-19T14:03:39;32.60;26.60
80212;DHT22;70434;37.956;23.722;2023-09-19T14:06:05;32.50;26.50
80212;DHT22;70434;37.956;23.722;2023-09-19T14:08:31;32.40;26.70
80212;DHT22;70434;37.956;23.722;2023-09-19T14:11:05;32.30;26.80
80212;DHT22;70434;37.956;23.722;2023-09-19T14:13:31;32.30;27.00
80212;DHT22;70434;37.956;23.722;2023-09-19T14:15:56;32.20;26.90
80212;DHT22;70434;37.956;23.722;2023-09-19T14:18:22;32.20;27.00
80212;DHT22;70434;37.956;23.722;2023-09-19T14:20:48;32.10;27.20
80212;DHT22;70434;37.956;23.722;2023-09-19T14:23:14;32.20;26.80
80212;DHT22;70434;37.956;23.722;2023-09-19T14:25:39;32.10;27.00
80212;DHT22;70434;37.956;23.722;2023-09-19T14:28:07;31.90;27.20
80212;DHT22;70434;37.956;23.722;2023-09-19T14:30:34;31.70;27.70
80212;DHT22;70434;37.956;23.722;2023-09-19T14:33:00;31.70;28.00
80212;DHT22;70434;37.956;23.722;2023-09-19T14:35:26;31.70;27.80
80212;DHT22;70434;37.956;23.722;2023-09-19T14:37:54;31.40;28.30
80212;DHT22;70434;37.956;23.722;2023-09-19T14:40:20;31.20;28.80
80212;DHT22;70434;37.956;23.722;2023-09-19T14:42:48;31.10;28.80
80212;DHT22;70434;37.956;23.722;2023-09-19T14:45:15;31.00;28.90
80212;DHT22;70434;37.956;23.722;2023-09-19T14:47:45;31.10;28.60
80212;DHT22;70434;37.956;23.722;2023-09-19T14:50:11;31.20;28.70
80212;DHT22;70434;37.956;23.722;2023-09-19T14:52:38;31.10;28.90
80212;DHT22;70434;37.956;23.722;2023-09-19T14:55:06;31.10;29.00
80212;DHT22;70434;37.956;23.722;2023-09-19T14:57:34;31.20;28.80
80212;DHT22;70434;37.956;23.722;2023-09-19T14:59:59;31.20;28.80
80212;DHT22;70434;37.956;23.722;2023-09-19T15:02:27;31.20;28.60
80212;DHT22;70434;37.956;23.722;2023-09-19T15:04:52;31.20;28.50
80212;DHT22;70434;37.956;23.722;2023-09-19T15:07:18;31.30;28.20
80212;DHT22;70434;37.956;23.722;2023-09-19T15:09:44;31.30;28.20
80212;DHT22;70434;37.956;23.722;2023-09-19T15:12:11;31.30;28.30
80212;DHT22;70434;37.956;23.722;2023-09-19T15:14:40;31.30;28.00
80212;DHT22;70434;37.956;23.722;2023-09-19T15:17:07;31.30;28.20
80212;DHT22;70434;37.956;23.722;2023-09-19T15:19:33;31.30;28.30
80212;DHT22;70434;37.956;23.722;2023-09-19T15:21:59;31.10;28.40
80212;DHT22;70434;37.956;23.722;2023-09-19T15:24:25;31.00;28.70
80212;DHT22;70434;37.956;23.722;2023-09-19T15:26:52;31.00;28.60
80212;DHT22;70434;37.956;23.722;2023-09-19T15:29:18;31.00;29.00
80212;DHT22;70434;37.956;23.722;2023-09-19T15:31:45;31.00;28.80
80212;DHT22;70434;37.956;23.722;2023-09-19T15:34:11;31.00;28.90
80212;DHT22;70434;37.956;23.722;2023-09-19T15:36:39;30.90;28.90
80212;DHT22;70434;37.956;23.722;2023-09-19T15:39:07;30.90;29.10
80212;DHT22;70434;37.956;23.722;2023-09-19T15:41:38;30.70;29.30
80212;DHT22;70434;37.956;23.722;2023-09-19T15:44:05;30.50;29.50
80212;DHT22;70434;37.956;23.722;2023-09-19T15:46:36;30.60;29.30
80212;DHT22;70434;37.956;23.722;2023-09-19T15:49:02;30.40;29.60
80212;DHT22;70434;37.956;23.722;2023-09-19T15:51:29;30.30;29.60
80212;DHT22;70434;37.956;23.722;2023-09-19T15:53:56;30.40;29.30
80212;DHT22;70434;37.956;23.722;2023-09-19T15:56:23;30.30;29.60
80212;DHT22;70434;37.956;23.722;2023-09-19T15:58:53;30.10;29.80
80212;DHT22;70434;37.956;23.722;2023-09-19T16:01:22;30.00;30.20
80212;DHT22;70434;37.956;23.722;2023-09-19T16:03:50;30.00;30.70
80212;DHT22;70434;37.956;23.722;2023-09-19T16:06:23;30.00;30.90
80212;DHT22;70434;37.956;23.722;2023-09-19T16:08:51;29.90;30.90
80212;DHT22;70434;37.956;23.722;2023-09-19T16:11:17;29.80;31.20
80212;DHT22;70434;37.956;23.722;2023-09-19T16:13:47;29.80;31.20
80212;DHT22;70434;37.956;23.722;2023-09-19T16:16:14;29.90;30.90
80212;DHT22;70434;37.956;23.722;2023-09-19T16:18:49;29.80;30.50
80212;DHT22;70434;37.956;23.722;2023-09-19T16:21:16;29.80;30.40